createdAt,value
2022-10-23T00:00:52.651Z,99.99
2022-10-23T00:01:56.303Z,99.99
2022-10-23T00:02:52.570Z,99.99
2022-10-23T00:03:52.512Z,99.99
2022-10-23T00:04:52.494Z,99.99
2022-10-23T00:05:52.511Z,99.99
2022-10-23T00:06:52.462Z,99.99
2022-10-23T00:07:52.472Z,99.99
2022-10-23T00:08:52.453Z,99.99
2022-10-23T00:09:52.432Z,99.99
2022-10-23T00:10:52.454Z,99.99
2022-10-23T00:11:52.433Z,99.99
2022-10-23T00:12:52.415Z,99.99
2022-10-23T00:13:52.385Z,99.99
2022-10-23T00:14:52.400Z,99.99
2022-10-23T00:16:52.354Z,99.99
2022-10-23T00:17:52.356Z,99.99
2022-10-23T00:18:52.356Z,99.99
2022-10-23T00:19:52.563Z,99.99
2022-10-23T00:20:52.350Z,99.99
2022-10-23T00:21:52.315Z,99.99
2022-10-23T00:22:52.298Z,99.99
2022-10-23T00:23:52.278Z,99.99
2022-10-23T00:24:52.290Z,99.99
2022-10-23T00:25:52.266Z,99.99
2022-10-23T00:26:52.247Z,99.99
2022-10-23T00:27:52.244Z,99.99
2022-10-23T00:28:52.238Z,99.99
2022-10-23T00:29:52.218Z,99.99
2022-10-23T00:30:52.225Z,99.99
2022-10-23T00:31:52.220Z,99.99
2022-10-23T00:32:52.177Z,99.99
2022-10-23T00:33:52.168Z,99.99
2022-10-23T00:34:52.459Z,99.99
2022-10-23T00:35:52.167Z,99.99
2022-10-23T00:36:52.139Z,99.99
2022-10-23T00:37:52.151Z,99.99
2022-10-23T00:38:52.131Z,99.99
2022-10-23T00:39:52.109Z,99.99
2022-10-23T00:40:52.120Z,99.99
2022-10-23T00:41:52.097Z,99.99
2022-10-23T00:42:52.080Z,99.99
2022-10-23T00:43:52.068Z,99.99
2022-10-23T00:44:52.072Z,99.99
2022-10-23T00:45:52.058Z,99.99
2022-10-23T00:46:52.028Z,99.99
2022-10-23T00:47:52.018Z,99.99
2022-10-23T00:48:52.028Z,99.99
2022-10-23T00:49:52.249Z,99.99
2022-10-23T00:50:51.996Z,99.99
2022-10-23T00:51:51.997Z,99.99
2022-10-23T00:52:51.977Z,99.99
2022-10-23T00:54:01.172Z,99.99
2022-10-23T00:54:53.209Z,99.99
2022-10-23T00:55:51.938Z,99.99
2022-10-23T00:56:51.949Z,99.99
2022-10-23T00:57:51.928Z,99.99
2022-10-23T00:58:51.900Z,99.99
2022-10-23T00:59:51.874Z,99.99
2022-10-23T01:00:51.888Z,99.99
2022-10-23T01:01:52.223Z,99.99
2022-10-23T01:02:51.860Z,99.99
2022-10-23T01:03:51.831Z,99.99
2022-10-23T01:04:51.911Z,99.99
2022-10-23T01:05:51.849Z,99.99
2022-10-23T01:06:51.807Z,99.99
2022-10-23T01:07:51.800Z,99.99
2022-10-23T01:08:51.801Z,99.99
2022-10-23T01:09:51.779Z,99.99
2022-10-23T01:10:51.762Z,99.99
2022-10-23T01:11:51.761Z,99.99
2022-10-23T01:12:51.744Z,99.99
2022-10-23T01:13:51.744Z,99.99
2022-10-23T01:14:51.742Z,99.99
2022-10-23T01:15:51.718Z,99.99
2022-10-23T01:16:51.695Z,99.99
2022-10-23T01:17:51.883Z,99.99
2022-10-23T01:18:51.693Z,99.99
2022-10-23T01:19:51.669Z,99.99
2022-10-23T01:20:51.663Z,99.99
2022-10-23T01:21:51.685Z,99.99
2022-10-23T01:22:51.657Z,99.99
2022-10-23T01:23:51.625Z,99.99
2022-10-23T01:24:51.606Z,99.99
2022-10-23T01:25:51.614Z,99.99
2022-10-23T01:26:51.837Z,99.99
2022-10-23T01:27:51.573Z,99.99
2022-10-23T01:28:51.583Z,99.99
2022-10-23T01:29:51.564Z,99.99
2022-10-23T01:30:51.526Z,99.99
2022-10-23T01:31:51.559Z,99.99
2022-10-23T01:32:51.516Z,99.99
2022-10-23T01:33:51.530Z,99.99
2022-10-23T01:34:51.498Z,99.99
2022-10-23T01:35:51.578Z,99.99
2022-10-23T01:36:51.481Z,99.99
2022-10-23T01:37:51.467Z,99.99
2022-10-23T01:38:51.521Z,99.99
2022-10-23T01:39:51.456Z,99.99
2022-10-23T01:40:51.446Z,99.99
2022-10-23T01:41:51.415Z,99.99
2022-10-23T01:42:51.418Z,99.99
2022-10-23T01:43:51.404Z,99.99
2022-10-23T01:44:51.411Z,99.99
2022-10-23T01:45:52.127Z,99.99
2022-10-23T01:46:51.376Z,99.99
2022-10-23T01:47:51.367Z,99.99
2022-10-23T01:48:51.354Z,99.99
2022-10-23T01:49:51.356Z,99.99
2022-10-23T01:50:51.346Z,99.99
2022-10-23T01:51:51.307Z,99.99
2022-10-23T01:52:51.327Z,99.99
2022-10-23T01:53:51.289Z,99.99
2022-10-23T01:54:51.343Z,99.99
2022-10-23T01:55:51.349Z,99.99
2022-10-23T01:56:51.532Z,99.99
2022-10-23T01:57:51.239Z,99.99
2022-10-23T01:58:51.228Z,99.99
2022-10-23T01:59:51.228Z,99.99
2022-10-23T02:00:51.210Z,99.99
2022-10-23T02:01:51.337Z,99.99
2022-10-23T02:02:51.196Z,99.99
2022-10-23T02:03:51.196Z,99.99
2022-10-23T02:04:51.240Z,99.99
2022-10-23T02:05:51.489Z,99.99
2022-10-23T02:06:51.155Z,99.99
2022-10-23T02:07:51.138Z,99.99
2022-10-23T02:08:51.127Z,99.99
2022-10-23T02:09:51.129Z,99.99
2022-10-23T02:10:51.122Z,99.99
2022-10-23T02:11:51.089Z,99.99
2022-10-23T02:12:51.080Z,99.99
2022-10-23T02:13:51.080Z,99.99
2022-10-23T02:14:51.074Z,99.99
2022-10-23T02:15:51.098Z,99.99
2022-10-23T02:16:51.040Z,99.99
2022-10-23T02:17:51.021Z,99.99
2022-10-23T02:18:51.011Z,99.99
2022-10-23T02:19:51.005Z,99.99
2022-10-23T02:20:51.023Z,99.99
2022-10-23T02:21:50.994Z,99.99
2022-10-23T02:22:50.966Z,99.99
2022-10-23T02:23:53.713Z,99.99
2022-10-23T02:24:51.941Z,99.99
2022-10-23T02:25:50.975Z,99.99
2022-10-23T02:26:50.951Z,99.99
2022-10-23T02:27:50.913Z,99.99
2022-10-23T02:28:50.901Z,99.99
2022-10-23T02:29:50.893Z,99.99
2022-10-23T02:30:50.893Z,99.99
2022-10-23T02:31:50.866Z,99.99
2022-10-23T02:32:50.849Z,99.99
2022-10-23T02:33:50.846Z,99.99
2022-10-23T02:34:50.876Z,99.99
2022-10-23T02:35:50.844Z,99.99
2022-10-23T02:36:50.812Z,99.99
2022-10-23T02:37:50.801Z,99.99
2022-10-23T02:38:50.785Z,99.99
2022-10-23T02:39:50.799Z,99.99
2022-10-23T02:40:50.803Z,99.99
2022-10-23T02:41:50.745Z,99.99
2022-10-23T02:42:50.753Z,99.99
2022-10-23T02:43:50.738Z,99.99
2022-10-23T02:44:50.750Z,99.99
2022-10-23T02:45:50.785Z,99.99
2022-10-23T02:46:50.707Z,99.99
2022-10-23T02:47:50.953Z,99.99
2022-10-23T02:48:50.676Z,99.99
2022-10-23T02:49:50.667Z,99.99
2022-10-23T02:50:50.674Z,99.99
2022-10-23T02:51:50.648Z,99.99
2022-10-23T02:52:50.636Z,99.99
2022-10-23T02:53:50.665Z,99.99
2022-10-23T02:54:50.623Z,99.99
2022-10-23T02:55:50.645Z,99.99
2022-10-23T02:56:50.863Z,99.99
2022-10-23T02:57:50.587Z,99.99
2022-10-23T02:58:50.568Z,99.99
2022-10-23T02:59:50.567Z,99.99
2022-10-23T03:00:50.558Z,99.99
2022-10-23T03:01:50.628Z,99.99
2022-10-23T03:02:50.518Z,99.99
2022-10-23T03:03:50.520Z,99.99
2022-10-23T03:04:50.511Z,99.99
2022-10-23T03:05:50.728Z,99.99
2022-10-23T03:06:50.477Z,99.99
2022-10-23T03:07:50.488Z,99.99
2022-10-23T03:08:50.450Z,99.99
2022-10-23T03:09:50.458Z,99.99
2022-10-23T03:10:50.461Z,99.99
2022-10-23T03:11:50.433Z,99.99
2022-10-23T03:12:50.407Z,99.99
2022-10-23T03:13:50.406Z,99.99
2022-10-23T03:14:50.390Z,99.99
2022-10-23T03:15:50.391Z,99.99
2022-10-23T03:16:50.370Z,99.99
2022-10-23T03:17:50.368Z,99.99
2022-10-23T03:18:50.357Z,99.99
2022-10-23T03:19:50.338Z,99.99
2022-10-23T03:20:50.370Z,99.99
2022-10-23T03:21:50.310Z,99.99
2022-10-23T03:22:50.305Z,99.99
2022-10-23T03:23:50.321Z,99.99
2022-10-23T03:24:50.281Z,99.99
2022-10-23T03:25:50.468Z,99.99
2022-10-23T03:26:50.250Z,99.99
2022-10-23T03:27:50.262Z,99.99
2022-10-23T03:28:50.272Z,99.99
2022-10-23T03:29:50.231Z,99.99
2022-10-23T03:30:50.222Z,99.99
2022-10-23T03:31:50.228Z,99.99
2022-10-23T03:32:50.182Z,99.99
2022-10-23T03:33:50.195Z,99.99
2022-10-23T03:34:50.176Z,99.99
2022-10-23T03:35:50.186Z,99.99
2022-10-23T03:36:50.179Z,99.99
2022-10-23T03:37:50.147Z,99.99
2022-10-23T03:38:50.131Z,99.99
2022-10-23T03:39:50.132Z,99.99
2022-10-23T03:40:50.142Z,99.99
2022-10-23T03:41:50.100Z,99.99
2022-10-23T03:42:50.081Z,99.99
2022-10-23T03:43:50.075Z,99.99
2022-10-23T03:44:50.335Z,99.99
2022-10-23T03:45:50.064Z,99.99
2022-10-23T03:46:50.038Z,99.99
2022-10-23T03:47:50.031Z,99.99
2022-10-23T03:48:50.023Z,99.99
2022-10-23T03:49:50.017Z,99.99
2022-10-23T03:50:50.004Z,99.99
2022-10-23T03:51:49.984Z,99.99
2022-10-23T03:52:49.992Z,99.99
2022-10-23T03:53:49.952Z,99.99
2022-10-23T03:54:49.956Z,99.99
2022-10-23T03:55:49.944Z,99.99
2022-10-23T03:56:52.521Z,99.99
2022-10-23T03:57:50.926Z,99.99
2022-10-23T03:58:49.912Z,99.99
2022-10-23T03:59:49.898Z,99.99
2022-10-23T04:00:49.923Z,99.99
2022-10-23T04:01:49.965Z,99.99
2022-10-23T04:02:49.865Z,99.99
2022-10-23T04:03:49.846Z,99.99
2022-10-23T04:04:50.130Z,99.99
2022-10-23T04:05:52.226Z,99.99
2022-10-23T04:06:49.814Z,99.99
2022-10-23T04:07:50.079Z,99.99
2022-10-23T04:08:49.831Z,99.99
2022-10-23T04:09:49.776Z,99.99
2022-10-23T04:10:49.776Z,99.99
2022-10-23T04:11:49.770Z,99.99
2022-10-23T04:12:49.756Z,99.99
2022-10-23T04:13:49.747Z,99.99
2022-10-23T04:14:49.748Z,99.99
2022-10-23T04:15:49.735Z,99.99
2022-10-23T04:16:49.710Z,99.99
2022-10-23T04:17:49.710Z,99.99
2022-10-23T04:18:49.687Z,99.99
2022-10-23T04:19:49.670Z,99.99
2022-10-23T04:20:49.687Z,99.99
2022-10-23T04:21:49.662Z,99.99
2022-10-23T04:22:49.649Z,99.99
2022-10-23T04:23:49.630Z,99.99
2022-10-23T04:24:49.631Z,99.99
2022-10-23T04:25:49.621Z,99.99
2022-10-23T04:26:49.619Z,99.99
2022-10-23T04:27:49.589Z,99.99
2022-10-23T04:28:49.580Z,99.99
2022-10-23T04:29:49.578Z,99.99
2022-10-23T04:30:49.677Z,99.99
2022-10-23T04:31:49.552Z,99.99
2022-10-23T04:32:49.531Z,99.99
2022-10-23T04:33:49.518Z,99.99
2022-10-23T04:34:49.514Z,99.99
2022-10-23T04:35:49.511Z,99.99
2022-10-23T04:36:49.483Z,99.99
2022-10-23T04:37:49.483Z,99.99
2022-10-23T04:38:49.470Z,99.99
2022-10-23T04:39:49.461Z,99.99
2022-10-23T04:40:49.484Z,99.99
2022-10-23T04:41:49.431Z,99.99
2022-10-23T04:42:49.430Z,99.99
2022-10-23T04:43:49.421Z,99.99
2022-10-23T04:44:49.402Z,99.99
2022-10-23T04:45:49.401Z,99.99
2022-10-23T04:46:49.394Z,99.99
2022-10-23T04:47:49.355Z,99.99
2022-10-23T04:48:49.359Z,99.99
2022-10-23T04:49:49.627Z,99.99
2022-10-23T04:50:49.348Z,99.99
2022-10-23T04:51:49.327Z,99.99
2022-10-23T04:52:49.313Z,99.99
2022-10-23T04:53:49.302Z,99.99
2022-10-23T04:54:49.272Z,99.99
2022-10-23T04:55:49.302Z,99.99
2022-10-23T04:56:49.266Z,99.99
2022-10-23T04:57:49.277Z,99.99
2022-10-23T04:58:49.243Z,99.99
2022-10-23T04:59:49.254Z,99.99
2022-10-23T05:00:49.267Z,99.99
2022-10-23T05:01:49.246Z,99.99
2022-10-23T05:02:49.210Z,99.99
2022-10-23T05:03:49.182Z,99.99
2022-10-23T05:04:49.162Z,99.99
2022-10-23T05:05:49.184Z,99.99
2022-10-23T05:06:49.226Z,99.99
2022-10-23T05:07:49.156Z,99.99
2022-10-23T05:08:49.154Z,99.99
2022-10-23T05:09:49.395Z,99.99
2022-10-23T05:10:49.141Z,99.99
2022-10-23T05:11:49.094Z,99.99
2022-10-23T05:12:49.103Z,99.99
2022-10-23T05:13:49.070Z,99.99
2022-10-23T05:14:49.070Z,99.99
2022-10-23T05:15:49.107Z,99.99
2022-10-23T05:16:49.051Z,99.99
2022-10-23T05:17:49.027Z,99.99
2022-10-23T05:18:49.040Z,99.99
2022-10-23T05:19:49.007Z,99.99
2022-10-23T05:20:49.015Z,99.99
2022-10-23T05:21:48.996Z,99.99
2022-10-23T05:22:48.990Z,99.99
2022-10-23T05:23:49.039Z,99.99
2022-10-23T05:24:50.566Z,99.99
2022-10-23T05:25:48.973Z,99.99
2022-10-23T05:26:48.927Z,99.99
2022-10-23T05:27:48.930Z,99.99
2022-10-23T05:28:48.929Z,99.99
2022-10-23T05:29:48.888Z,99.99
2022-10-23T05:30:48.907Z,99.99
2022-10-23T05:31:48.868Z,99.99
2022-10-23T05:32:48.879Z,99.99
2022-10-23T05:33:48.878Z,99.99
2022-10-23T05:34:48.838Z,99.99
2022-10-23T05:35:48.865Z,99.99
2022-10-23T05:36:48.841Z,99.99
2022-10-23T05:37:48.818Z,99.99
2022-10-23T05:38:48.800Z,99.99
2022-10-23T05:39:48.802Z,99.99
2022-10-23T05:40:49.040Z,99.99
2022-10-23T05:41:48.764Z,99.99
2022-10-23T05:42:49.006Z,99.99
2022-10-23T05:43:49.009Z,99.99
2022-10-23T05:44:48.739Z,99.99
2022-10-23T05:45:48.750Z,99.99
2022-10-23T05:46:48.720Z,99.99
2022-10-23T05:47:48.711Z,99.99
2022-10-23T05:48:48.791Z,99.99
2022-10-23T05:49:48.690Z,99.99
2022-10-23T05:50:48.674Z,99.99
2022-10-23T05:51:48.663Z,99.99
2022-10-23T05:52:48.650Z,99.99
2022-10-23T05:53:48.644Z,99.99
2022-10-23T05:54:48.626Z,99.99
2022-10-23T05:55:48.618Z,99.99
2022-10-23T05:56:48.612Z,99.99
2022-10-23T05:57:48.583Z,99.99
2022-10-23T05:58:48.581Z,99.99
2022-10-23T05:59:48.858Z,99.99
2022-10-23T06:00:48.571Z,99.99
2022-10-23T06:01:48.665Z,99.99
2022-10-23T06:02:48.544Z,99.99
2022-10-23T06:03:48.525Z,99.99
2022-10-23T06:04:48.503Z,99.99
2022-10-23T06:05:48.515Z,99.99
2022-10-23T06:06:48.503Z,99.99
2022-10-23T06:07:48.472Z,99.99
2022-10-23T06:08:48.484Z,99.99
2022-10-23T06:09:48.462Z,99.99
2022-10-23T06:10:48.463Z,99.99
2022-10-23T06:11:48.423Z,99.99
2022-10-23T06:12:48.445Z,99.99
2022-10-23T06:13:48.483Z,99.99
2022-10-23T06:14:48.404Z,99.99
2022-10-23T06:15:48.400Z,99.99
2022-10-23T06:16:48.395Z,99.99
2022-10-23T06:17:48.374Z,99.99
2022-10-23T06:18:48.355Z,99.99
2022-10-23T06:19:48.365Z,99.99
2022-10-23T06:20:48.356Z,99.99
2022-10-23T06:21:48.339Z,99.99
2022-10-23T06:22:48.345Z,99.99
2022-10-23T06:23:48.328Z,99.99
2022-10-23T06:24:48.306Z,99.99
2022-10-23T06:25:48.287Z,99.99
2022-10-23T06:26:48.280Z,99.99
2022-10-23T06:27:48.265Z,99.99
2022-10-23T06:28:48.274Z,99.99
2022-10-23T06:29:48.246Z,99.99
2022-10-23T06:30:48.256Z,99.99
2022-10-23T06:31:48.204Z,99.99
2022-10-23T06:32:48.195Z,99.99
2022-10-23T06:33:48.186Z,99.99
2022-10-23T06:34:48.176Z,99.99
2022-10-23T06:35:48.202Z,99.99
2022-10-23T06:36:48.159Z,99.99
2022-10-23T06:37:48.145Z,99.99
2022-10-23T06:38:48.202Z,99.99
2022-10-23T06:39:48.122Z,99.99
2022-10-23T06:40:48.112Z,99.99
2022-10-23T06:41:48.128Z,99.99
2022-10-23T06:42:48.079Z,99.99
2022-10-23T06:43:48.090Z,99.99
2022-10-23T06:44:48.068Z,99.99
2022-10-23T06:45:48.072Z,99.99
2022-10-23T06:46:48.310Z,99.99
2022-10-23T06:47:48.039Z,99.99
2022-10-23T06:48:48.020Z,99.99
2022-10-23T06:49:47.999Z,99.99
2022-10-23T06:50:47.997Z,99.99
2022-10-23T06:51:47.999Z,99.99
2022-10-23T06:52:48.112Z,99.99
2022-10-23T06:53:47.967Z,99.99
2022-10-23T06:54:47.958Z,99.99
2022-10-23T06:55:50.190Z,99.99
2022-10-23T06:56:47.939Z,99.99
2022-10-23T06:57:47.941Z,99.99
2022-10-23T06:58:47.897Z,99.99
2022-10-23T06:59:47.900Z,99.99
2022-10-23T07:00:47.933Z,99.99
2022-10-23T07:01:48.064Z,99.99
2022-10-23T07:02:47.859Z,99.99
2022-10-23T07:03:47.866Z,99.99
2022-10-23T07:04:47.851Z,99.99
2022-10-23T07:05:47.841Z,99.99
2022-10-23T07:06:47.852Z,99.99
2022-10-23T07:07:47.894Z,99.99
2022-10-23T07:08:47.800Z,99.99
2022-10-23T07:09:47.802Z,99.99
2022-10-23T07:10:47.793Z,99.99
2022-10-23T07:11:47.770Z,99.99
2022-10-23T07:12:47.761Z,99.99
2022-10-23T07:13:47.752Z,99.99
2022-10-23T07:14:47.732Z,99.99
2022-10-23T07:15:47.722Z,99.99
2022-10-23T07:16:47.713Z,99.99
2022-10-23T07:17:47.830Z,99.99
2022-10-23T07:18:47.768Z,99.99
2022-10-23T07:19:47.692Z,99.99
2022-10-23T07:20:47.712Z,99.99
2022-10-23T07:21:47.894Z,99.99
2022-10-23T07:22:47.653Z,99.99
2022-10-23T07:23:47.632Z,99.97
2022-10-23T07:24:47.640Z,99.87
2022-10-23T07:25:47.608Z,99.62
2022-10-23T07:26:47.640Z,99.52
2022-10-23T07:27:47.765Z,99.52
2022-10-23T07:28:47.583Z,99.41
2022-10-23T07:29:47.583Z,99.31
2022-10-23T07:30:47.579Z,99.21
2022-10-23T07:31:47.585Z,99.11
2022-10-23T07:32:47.543Z,98.80
2022-10-23T07:33:47.524Z,98.45
2022-10-23T07:34:47.517Z,98.25
2022-10-23T07:35:47.512Z,97.94
2022-10-23T07:36:47.491Z,97.84
2022-10-23T07:37:47.528Z,97.84
2022-10-23T07:38:47.952Z,97.64
2022-10-23T07:39:48.472Z,97.29
2022-10-23T07:40:47.455Z,97.08
2022-10-23T07:41:47.427Z,96.98
2022-10-23T07:42:47.426Z,96.78
2022-10-23T07:43:47.434Z,96.58
2022-10-23T07:44:47.388Z,96.68
2022-10-23T07:45:47.436Z,96.63
2022-10-23T07:46:47.378Z,96.53
2022-10-23T07:47:47.479Z,96.12
2022-10-23T07:48:47.397Z,95.82
2022-10-23T07:49:47.480Z,95.62
2022-10-23T07:50:47.330Z,95.41
2022-10-23T07:51:50.514Z,95.31
2022-10-23T07:52:47.453Z,95.31
2022-10-23T07:53:47.296Z,95.31
2022-10-23T07:54:47.276Z,95.21
2022-10-23T07:55:47.299Z,95.41
2022-10-23T07:56:48.128Z,95.31
2022-10-23T07:57:47.248Z,95.10
2022-10-23T07:58:47.289Z,94.80
2022-10-23T07:59:47.239Z,94.76
2022-10-23T08:00:47.233Z,94.56
2022-10-23T08:01:47.308Z,94.25
2022-10-23T08:02:47.221Z,93.95
2022-10-23T08:03:47.187Z,93.70
2022-10-23T08:04:47.151Z,93.40
2022-10-23T08:05:47.160Z,93.19
2022-10-23T08:06:47.178Z,93.19
2022-10-23T08:07:47.222Z,92.99
2022-10-23T08:08:47.136Z,93.05
2022-10-23T08:09:47.110Z,92.84
2022-10-23T08:10:47.122Z,92.24
2022-10-23T08:11:47.119Z,92.03
2022-10-23T08:12:47.072Z,92.24
2022-10-23T08:13:47.053Z,92.09
2022-10-23T08:14:47.118Z,92.09
2022-10-23T08:15:47.072Z,91.68
2022-10-23T08:16:47.051Z,91.48
2022-10-23T08:17:47.022Z,91.38
2022-10-23T08:18:47.024Z,90.97
2022-10-23T08:19:47.011Z,90.83
2022-10-23T08:20:47.024Z,91.13
2022-10-23T08:21:47.205Z,90.62
2022-10-23T08:22:46.963Z,90.62
2022-10-23T08:23:46.933Z,90.18
2022-10-23T08:24:46.967Z,89.87
2022-10-23T08:25:46.979Z,89.57
2022-10-23T08:26:46.925Z,89.77
2022-10-23T08:27:46.925Z,89.43
2022-10-23T08:28:46.947Z,89.23
2022-10-23T08:29:46.882Z,88.82
2022-10-23T08:30:46.925Z,89.18
2022-10-23T08:31:46.857Z,88.68
2022-10-23T08:32:46.857Z,88.57
2022-10-23T08:33:46.865Z,88.27
2022-10-23T08:34:46.835Z,87.62
2022-10-23T08:35:47.035Z,87.73
2022-10-23T08:36:47.348Z,87.12
2022-10-23T08:37:46.869Z,86.77
2022-10-23T08:38:46.856Z,86.67
2022-10-23T08:39:50.084Z,85.96
2022-10-23T08:40:47.772Z,85.86
2022-10-23T08:41:46.776Z,85.93
2022-10-23T08:42:46.740Z,85.93
2022-10-23T08:43:46.725Z,85.72
2022-10-23T08:44:46.749Z,85.62
2022-10-23T08:45:46.699Z,85.62
2022-10-23T08:46:46.689Z,85.31
2022-10-23T08:47:46.689Z,85.28
2022-10-23T08:48:46.702Z,85.08
2022-10-23T08:49:47.678Z,85.08
2022-10-23T08:50:46.653Z,84.67
2022-10-23T08:51:46.658Z,84.77
2022-10-23T08:52:46.944Z,84.97
2022-10-23T08:53:46.629Z,84.57
2022-10-23T08:54:46.600Z,85.17
2022-10-23T08:55:46.611Z,85.28
2022-10-23T08:56:46.602Z,84.47
2022-10-23T08:57:46.569Z,84.61
2022-10-23T08:58:46.680Z,84.47
2022-10-23T08:59:46.560Z,84.57
2022-10-23T09:00:46.670Z,84.57
2022-10-23T09:01:46.741Z,84.17
2022-10-23T09:02:46.805Z,83.86
2022-10-23T09:03:46.500Z,84.17
2022-10-23T09:04:46.500Z,83.86
2022-10-23T09:05:46.492Z,83.22
2022-10-23T09:06:46.471Z,83.01
2022-10-23T09:07:46.574Z,83.18
2022-10-23T09:08:46.454Z,83.07
2022-10-23T09:09:46.441Z,82.57
2022-10-23T09:10:48.153Z,82.78
2022-10-23T09:11:46.497Z,82.07
2022-10-23T09:12:46.414Z,82.23
2022-10-23T09:13:46.394Z,81.93
2022-10-23T09:14:46.376Z,82.13
2022-10-23T09:15:46.405Z,81.82
2022-10-23T09:16:46.373Z,81.52
2022-10-23T09:17:46.851Z,81.82
2022-10-23T09:18:46.644Z,81.62
2022-10-23T09:19:46.333Z,81.52
2022-10-23T09:20:46.363Z,81.73
2022-10-23T09:21:46.325Z,81.22
2022-10-23T09:22:46.306Z,80.92
2022-10-23T09:23:46.295Z,81.38
2022-10-23T09:24:47.658Z,80.68
2022-10-23T09:25:46.274Z,81.28
2022-10-23T09:26:46.242Z,81.08
2022-10-23T09:27:46.253Z,81.32
2022-10-23T09:28:46.247Z,81.73
2022-10-23T09:29:46.223Z,81.46
2022-10-23T09:30:46.224Z,82.27
2022-10-23T09:31:46.226Z,82.61
2022-10-23T09:32:46.174Z,82.41
2022-10-23T09:33:46.177Z,82.37
2022-10-23T09:34:46.156Z,82.78
2022-10-23T09:35:46.197Z,82.87
2022-10-23T09:36:46.171Z,82.61
2022-10-23T09:37:46.204Z,82.61
2022-10-23T09:38:46.098Z,83.22
2022-10-23T09:39:46.107Z,82.81
2022-10-23T09:40:46.099Z,83.22
2022-10-23T09:41:46.068Z,83.62
2022-10-23T09:42:46.070Z,83.22
2022-10-23T09:43:46.250Z,83.32
2022-10-23T09:44:46.029Z,83.42
2022-10-23T09:45:46.089Z,83.72
2022-10-23T09:46:46.173Z,83.22
2022-10-23T09:47:46.068Z,83.32
2022-10-23T09:48:46.016Z,83.01
2022-10-23T09:49:46.106Z,83.32
2022-10-23T09:50:47.020Z,83.22
2022-10-23T09:51:45.944Z,83.82
2022-10-23T09:52:45.992Z,83.42
2022-10-23T09:53:45.933Z,83.01
2022-10-23T09:54:46.045Z,83.01
2022-10-23T09:55:45.912Z,83.72
2022-10-23T09:56:45.900Z,83.52
2022-10-23T09:57:46.208Z,83.22
2022-10-23T09:58:45.920Z,83.01
2022-10-23T09:59:45.843Z,82.71
2022-10-23T10:00:45.900Z,82.71
2022-10-23T10:01:45.892Z,82.41
2022-10-23T10:02:47.041Z,82.61
2022-10-23T10:03:45.804Z,82.57
2022-10-23T10:04:45.798Z,82.37
2022-10-23T10:05:45.818Z,82.47
2022-10-23T10:06:45.789Z,82.81
2022-10-23T10:07:45.958Z,82.81
2022-10-23T10:08:45.753Z,82.81
2022-10-23T10:09:45.779Z,82.78
2022-10-23T10:10:45.735Z,82.31
2022-10-23T10:11:45.704Z,82.41
2022-10-23T10:12:45.723Z,82.71
2022-10-23T10:13:45.713Z,82.71
2022-10-23T10:14:45.672Z,82.78
2022-10-23T10:15:45.687Z,82.67
2022-10-23T10:16:45.663Z,82.57
2022-10-23T10:17:46.002Z,82.78
2022-10-23T10:18:45.635Z,82.78
2022-10-23T10:19:45.878Z,82.57
2022-10-23T10:20:45.616Z,82.47
2022-10-23T10:21:45.595Z,82.57
2022-10-23T10:22:45.602Z,82.07
2022-10-23T10:23:45.577Z,82.67
2022-10-23T10:24:45.548Z,82.21
2022-10-23T10:25:49.761Z,82.41
2022-10-23T10:26:46.549Z,82.81
2022-10-23T10:27:45.873Z,82.81
2022-10-23T10:28:45.519Z,82.81
2022-10-23T10:29:45.562Z,82.91
2022-10-23T10:30:45.499Z,83.22
2022-10-23T10:31:49.337Z,83.32
2022-10-23T10:32:46.480Z,83.32
2022-10-23T10:33:45.450Z,83.62
2022-10-23T10:34:45.450Z,83.82
2022-10-23T10:35:45.449Z,83.56
2022-10-23T10:36:45.412Z,83.96
2022-10-23T10:37:47.428Z,84.37
2022-10-23T10:38:45.669Z,83.56
2022-10-23T10:39:45.666Z,83.66
2022-10-23T10:40:45.390Z,84.17
2022-10-23T10:41:45.367Z,83.66
2022-10-23T10:42:45.371Z,84.17
2022-10-23T10:43:45.331Z,84.27
2022-10-23T10:44:45.323Z,84.06
2022-10-23T10:45:45.327Z,83.86
2022-10-23T10:46:45.301Z,83.86
2022-10-23T10:47:45.541Z,84.17
2022-10-23T10:48:45.291Z,84.47
2022-10-23T10:49:45.283Z,84.37
2022-10-23T10:50:45.293Z,83.96
2022-10-23T10:51:45.263Z,84.67
2022-10-23T10:52:48.363Z,85.08
2022-10-23T10:53:45.235Z,85.08
2022-10-23T10:54:45.224Z,85.17
2022-10-23T10:55:45.228Z,85.02
2022-10-23T10:56:45.209Z,85.11
2022-10-23T10:57:45.456Z,85.42
2022-10-23T10:58:45.179Z,85.42
2022-10-23T10:59:45.164Z,85.42
2022-10-23T11:00:45.214Z,86.13
2022-10-23T11:01:45.277Z,85.56
2022-10-23T11:02:45.174Z,85.86
2022-10-23T11:03:45.206Z,85.76
2022-10-23T11:04:45.124Z,85.86
2022-10-23T11:05:45.148Z,85.86
2022-10-23T11:06:45.129Z,86.27
2022-10-23T11:07:45.360Z,85.66
2022-10-23T11:08:57.181Z,85.46
2022-10-23T11:09:46.065Z,85.76
2022-10-23T11:10:45.040Z,85.86
2022-10-23T11:11:45.066Z,86.13
2022-10-23T11:12:45.015Z,85.96
2022-10-23T11:13:45.007Z,86.13
2022-10-23T11:14:45.012Z,86.02
2022-10-23T11:15:45.052Z,86.02
2022-10-23T11:16:44.972Z,85.82
2022-10-23T11:17:45.410Z,86.33
2022-10-23T11:18:44.958Z,86.13
2022-10-23T11:19:44.968Z,86.22
2022-10-23T11:20:44.930Z,86.02
2022-10-23T11:21:44.921Z,85.93
2022-10-23T11:22:45.187Z,85.72
2022-10-23T11:23:44.901Z,85.72
2022-10-23T11:24:48.175Z,85.48
2022-10-23T11:25:44.898Z,85.28
2022-10-23T11:26:44.861Z,84.87
2022-10-23T11:27:45.314Z,84.67
2022-10-23T11:28:44.900Z,84.43
2022-10-23T11:29:44.842Z,84.23
2022-10-23T11:30:44.811Z,83.82
2022-10-23T11:31:44.823Z,84.03
2022-10-23T11:32:44.802Z,83.98
2022-10-23T11:33:44.871Z,83.38
2022-10-23T11:34:44.808Z,83.07
2022-10-23T11:35:44.766Z,83.14
2022-10-23T11:36:44.743Z,82.73
2022-10-23T11:37:44.955Z,82.93
2022-10-23T11:38:44.723Z,82.23
2022-10-23T11:39:44.733Z,81.68
2022-10-23T11:40:44.744Z,81.59
2022-10-23T11:41:44.967Z,81.48
2022-10-23T11:42:44.976Z,81.28
2022-10-23T11:43:44.674Z,81.28
2022-10-23T11:44:44.715Z,80.98
2022-10-23T11:45:44.945Z,81.18
2022-10-23T11:46:44.644Z,80.64
2022-10-23T11:47:44.631Z,80.94
2022-10-23T11:48:44.625Z,80.84
2022-10-23T11:49:44.607Z,80.74
2022-10-23T11:50:44.587Z,80.44
2022-10-23T11:51:44.575Z,79.83
2022-10-23T11:52:50.749Z,80.24
2022-10-23T11:53:45.547Z,80.44
2022-10-23T11:54:44.836Z,80.04
2022-10-23T11:55:44.552Z,80.33
2022-10-23T11:56:44.653Z,80.13
2022-10-23T11:57:45.448Z,80.13
2022-10-23T11:58:44.892Z,80.04
2022-10-23T11:59:44.507Z,80.04
2022-10-23T12:00:44.639Z,80.24
2022-10-23T12:01:45.333Z,80.44
2022-10-23T12:02:44.784Z,80.24
2022-10-23T12:03:44.878Z,80.33
2022-10-23T12:04:44.818Z,80.20
2022-10-23T12:05:44.441Z,80.50
2022-10-23T12:06:44.426Z,80.20
2022-10-23T12:07:44.552Z,79.80
2022-10-23T12:08:45.469Z,80.50
2022-10-23T12:09:45.310Z,80.20
2022-10-23T12:10:44.359Z,79.90
2022-10-23T12:11:44.353Z,79.80
2022-10-23T12:12:44.351Z,79.60
2022-10-23T12:13:44.321Z,79.60
2022-10-23T12:14:44.354Z,79.49
2022-10-23T12:15:44.598Z,79.86
2022-10-23T12:16:44.313Z,79.86
2022-10-23T12:17:44.506Z,79.76
2022-10-23T12:18:44.273Z,79.66
2022-10-23T12:19:44.281Z,79.56
2022-10-23T12:20:44.243Z,79.46
2022-10-23T12:21:44.233Z,79.46
2022-10-23T12:22:44.225Z,79.49
2022-10-23T12:23:47.274Z,79.56
2022-10-23T12:24:44.213Z,79.56
2022-10-23T12:25:44.216Z,79.76
2022-10-23T12:26:44.177Z,79.46
2022-10-23T12:27:45.063Z,79.56
2022-10-23T12:28:44.167Z,79.46
2022-10-23T12:29:44.485Z,79.46
2022-10-23T12:30:44.163Z,79.46
2022-10-23T12:31:47.035Z,79.76
2022-10-23T12:32:44.440Z,79.66
2022-10-23T12:33:44.095Z,79.56
2022-10-23T12:34:44.088Z,79.36
2022-10-23T12:35:44.076Z,79.66
2022-10-23T12:36:44.077Z,79.52
2022-10-23T12:37:44.054Z,79.11
2022-10-23T12:38:44.044Z,79.22
2022-10-23T12:39:44.054Z,79.22
2022-10-23T12:40:44.015Z,79.46
2022-10-23T12:41:44.000Z,79.62
2022-10-23T12:42:44.264Z,79.16
2022-10-23T12:43:43.986Z,79.25
2022-10-23T12:44:43.995Z,79.36
2022-10-23T12:45:43.972Z,79.32
2022-10-23T12:46:43.964Z,79.52
2022-10-23T12:47:43.965Z,79.52
2022-10-23T12:48:43.948Z,79.42
2022-10-23T12:49:43.947Z,79.72
2022-10-23T12:50:43.911Z,79.42
2022-10-23T12:51:43.899Z,79.82
2022-10-23T12:52:44.287Z,79.92
2022-10-23T12:53:43.869Z,79.62